Time;durP1;ratioP1;P1;durP2;ratioP2;P2;SDS_P1;SDS_P2;PMS_P1;PMS_P2;Temp;Humidity;BMP_temperature;BMP_pressure;BME280_temperature;BME280_humidity;BME280_pressure;Samples;Min_cycle;Max_cycle;Signal;HPM_P1;HPM_P2
2022/04/18 00:01:52;;;;;;;4.23;2.13;;;10.90;73.90;;;;;;5072064;28;20245;-82
2022/04/18 00:04:17;;;;;;;3.40;2.30;;;10.90;83.50;;;;;;5053806;28;20216;-82
2022/04/18 00:06:43;;;;;;;4.73;2.53;;;10.90;74.50;;;;;;5069521;28;20456;-83
2022/04/18 00:09:09;;;;;;;3.53;1.90;;;10.90;72.70;;;;;;5071905;28;20201;-82
2022/04/18 00:11:34;;;;;;;3.53;2.20;;;10.90;78.50;;;;;;5071563;28;20249;-82
2022/04/18 00:14:00;;;;;;;3.33;2.23;;;11.00;73.80;;;;;;5053760;28;20188;-83
2022/04/18 00:16:25;;;;;;;3.23;2.40;;;11.00;69.90;;;;;;5052875;28;20202;-81
2022/04/18 00:18:52;;;;;;;4.17;2.23;;;11.00;67.80;;;;;;5053750;28;20580;-83
2022/04/18 00:21:17;;;;;;;6.43;3.10;;;10.90;67.30;;;;;;5053687;28;20211;-83
2022/04/18 00:23:44;;;;;;;4.23;2.70;;;10.90;67.60;;;;;;5071743;28;20507;-82
2022/04/18 00:26:09;;;;;;;3.90;2.13;;;11.00;66.90;;;;;;5071515;28;20436;-82
2022/04/18 00:28:35;;;;;;;4.30;2.47;;;11.00;70.00;;;;;;5071013;28;20494;-83
2022/04/18 00:31:01;;;;;;;3.50;2.50;;;10.90;66.30;;;;;;5071748;28;20418;-82
2022/04/18 00:33:26;;;;;;;3.00;2.30;;;11.00;68.30;;;;;;5053779;28;20182;-82
2022/04/18 00:35:52;;;;;;;3.40;2.10;;;10.90;66.40;;;;;;5071427;28;20285;-82
2022/04/18 00:38:18;;;;;;;3.93;2.43;;;11.00;66.20;;;;;;5071020;28;20186;-83
2022/04/18 00:40:44;;;;;;;3.47;2.40;;;10.90;73.80;;;;;;5071629;28;20209;-81
2022/04/18 00:43:10;;;;;;;4.00;2.60;;;10.90;68.50;;;;;;5053990;28;20832;-83
2022/04/18 00:45:36;;;;;;;3.20;2.20;;;10.90;70.80;;;;;;5053441;28;20181;-83
2022/04/18 00:48:02;;;;;;;3.87;2.30;;;10.80;79.70;;;;;;5070861;28;20524;-83
2022/04/18 00:50:29;;;;;;;3.63;2.60;;;10.80;73.10;;;;;;5053537;28;20272;-83
2022/04/18 00:52:55;;;;;;;3.50;2.33;;;10.70;79.20;;;;;;5071476;28;20994;-82
2022/04/18 00:55:24;;;;;;;3.57;2.43;;;10.70;84.20;;;;;;5053292;28;20543;-82
2022/04/18 00:57:52;;;;;;;3.50;2.17;;;10.70;83.90;;;;;;5052822;28;20509;-83
2022/04/18 01:00:18;;;;;;;5.10;2.50;;;10.60;86.40;;;;;;5053589;28;20494;-83
2022/04/18 01:02:44;;;;;;;3.60;2.40;;;10.50;88.00;;;;;;5071231;28;20927;-83
2022/04/18 01:05:10;;;;;;;3.10;2.40;;;10.50;84.20;;;;;;5053264;28;20178;-82
2022/04/18 01:07:36;;;;;;;3.20;2.60;;;10.50;81.50;;;;;;5070304;28;20452;-82
2022/04/18 01:10:04;;;;;;;5.37;2.50;;;10.40;81.80;;;;;;5053347;28;20189;-83
2022/04/18 01:12:30;;;;;;;4.50;2.57;;;10.40;82.30;;;;;;5053259;28;20420;-82
2022/04/18 01:14:55;;;;;;;3.63;2.10;;;10.30;85.60;;;;;;5071231;28;20973;-82
2022/04/18 01:17:21;;;;;;;3.20;2.20;;;10.30;79.60;;;;;;5052378;28;20552;-82
2022/04/18 01:19:47;;;;;;;3.20;2.07;;;10.30;83.60;;;;;;5071068;28;20181;-83
2022/04/18 01:22:13;;;;;;;3.10;2.20;;;10.20;80.20;;;;;;5072091;28;20552;-83
2022/04/18 01:30:09;;;;;;;3.57;2.20;;;10.20;80.20;;;;;;5075085;28;20831;-83
2022/04/18 01:32:35;;;;;;;2.90;2.07;;;10.20;80.30;;;;;;5056879;28;20461;-83
2022/04/18 01:35:00;;;;;;;3.10;2.23;;;10.10;83.60;;;;;;5056571;28;20219;-82
2022/04/18 01:37:27;;;;;;;3.13;1.90;;;10.20;82.40;;;;;;5073865;28;20256;-82
2022/04/18 01:39:52;;;;;;;3.00;2.13;;;10.10;75.30;;;;;;5074604;28;20178;-83
2022/04/18 01:42:18;;;;;;;4.63;2.30;;;10.10;82.60;;;;;;5074538;28;20481;-81
2022/04/18 01:44:43;;;;;;;3.23;1.90;;;10.00;80.70;;;;;;5074339;28;20235;-82
2022/04/18 01:47:09;;;;;;;3.77;2.27;;;10.10;81.50;;;;;;5055678;28;20230;-83
2022/04/18 01:49:34;;;;;;;3.00;2.13;;;10.00;78.20;;;;;;5056558;28;20241;-82
2022/04/18 01:52:00;;;;;;;5.07;2.27;;;10.10;83.90;;;;;;5074311;28;20222;-81
2022/04/18 01:54:26;;;;;;;3.70;2.20;;;10.10;87.00;;;;;;5074450;28;20224;-83
2022/04/18 01:56:51;;;;;;;3.80;2.20;;;10.00;84.50;;;;;;5072057;28;20238;-82
2022/04/18 01:59:17;;;;;;;3.07;2.10;;;10.00;84.90;;;;;;5056355;28;20691;-82
2022/04/18 02:01:43;;;;;;;3.10;2.00;;;9.90;91.30;;;;;;5074253;28;20269;-82
2022/04/18 02:04:09;;;;;;;3.37;2.23;;;9.90;90.80;;;;;;5074210;28;20209;-82
2022/04/18 02:06:34;;;;;;;3.23;2.00;;;9.80;91.60;;;;;;5073180;28;20588;-83
2022/04/18 02:09:00;;;;;;;3.30;2.20;;;9.80;90.60;;;;;;5072398;28;20744;-83
2022/04/18 02:11:26;;;;;;;3.13;2.30;;;9.80;92.10;;;;;;5073707;28;20207;-83
2022/04/18 02:13:52;;;;;;;4.00;2.27;;;9.70;93.00;;;;;;5055819;28;20271;-83
2022/04/18 02:16:18;;;;;;;3.60;1.90;;;9.70;99.90;;;;;;5055816;28;20666;-82
2022/04/18 02:18:44;;;;;;;4.10;2.30;;;9.70;99.30;;;;;;5073096;28;20421;-82
2022/04/18 02:21:12;;;;;;;3.20;2.17;;;9.60;99.90;;;;;;5073917;28;20795;-83
2022/04/18 02:23:40;;;;;;;3.53;2.17;;;9.60;99.90;;;;;;5073740;28;20461;-82
2022/04/18 02:26:06;;;;;;;2.70;1.83;;;9.50;99.90;;;;;;5073533;28;20429;-82
2022/04/18 02:28:31;;;;;;;3.90;2.40;;;9.50;98.40;;;;;;5073005;28;20538;-82
2022/04/18 02:31:00;;;;;;;2.90;2.13;;;9.50;99.90;;;;;;5073626;28;20250;-83
2022/04/18 02:33:25;;;;;;;3.90;2.13;;;9.40;99.40;;;;;;5073270;28;20533;-81
2022/04/18 02:35:51;;;;;;;3.30;2.07;;;9.40;99.90;;;;;;5073155;28;20448;-82
2022/04/18 02:38:17;;;;;;;3.20;2.37;;;9.40;99.90;;;;;;5072715;28;20186;-82
2022/04/18 02:40:43;;;;;;;3.00;1.87;;;9.30;99.90;;;;;;5055348;28;20244;-82
2022/04/18 02:43:09;;;;;;;4.10;2.07;;;9.30;99.90;;;;;;5073365;28;20290;-82
2022/04/18 02:45:35;;;;;;;3.97;2.60;;;9.30;97.80;;;;;;5071729;28;20845;-83
2022/04/18 02:48:01;;;;;;;3.50;2.10;;;9.20;99.90;;;;;;5054833;28;20274;-83
2022/04/18 02:50:27;;;;;;;3.00;2.00;;;9.20;99.20;;;;;;5055191;28;20413;-82
2022/04/18 02:52:53;;;;;;;3.30;1.90;;;9.20;99.90;;;;;;5055210;28;21054;-82
2022/04/18 02:55:19;;;;;;;3.07;2.00;;;9.20;99.90;;;;;;5055224;28;20252;-82
2022/04/18 02:57:45;;;;;;;3.60;2.40;;;9.20;99.90;;;;;;5054347;28;21035;-83
2022/04/18 03:00:11;;;;;;;3.70;2.00;;;9.10;99.90;;;;;;5055014;28;20421;-82
2022/04/18 03:02:39;;;;;;;3.77;2.30;;;9.10;99.90;;;;;;5072806;28;20198;-82
2022/04/18 03:05:06;;;;;;;3.10;2.17;;;9.00;99.90;;;;;;5072983;28;20758;-82
2022/04/18 03:07:32;;;;;;;4.93;2.60;;;9.00;99.90;;;;;;5072044;28;20457;-82
2022/04/18 03:09:58;;;;;;;5.10;1.93;;;9.00;99.90;;;;;;5072807;28;20543;-83
2022/04/18 03:12:24;;;;;;;4.30;2.03;;;9.00;99.90;;;;;;5072444;28;20500;-82
2022/04/18 03:14:50;;;;;;;3.50;2.20;;;8.90;99.90;;;;;;5054837;28;20190;-82
2022/04/18 03:17:16;;;;;;;3.70;2.33;;;8.90;99.90;;;;;;5053687;28;20208;-82
2022/04/18 03:19:41;;;;;;;3.50;2.37;;;8.80;99.90;;;;;;5054753;28;20274;-82
2022/04/18 03:22:07;;;;;;;3.60;2.37;;;8.80;99.90;;;;;;5072702;28;20446;-82
2022/04/18 03:24:34;;;;;;;4.00;2.53;;;8.70;99.90;;;;;;5054451;28;20206;-82
2022/04/18 03:27:00;;;;;;;4.33;2.60;;;8.80;99.90;;;;;;5053733;28;20681;-82
2022/04/18 03:29:26;;;;;;;3.70;2.40;;;8.70;99.90;;;;;;5054243;28;20783;-83
2022/04/18 03:31:53;;;;;;;3.23;2.30;;;8.70;99.90;;;;;;5072366;28;20414;-82
2022/04/18 03:34:19;;;;;;;3.90;2.10;;;8.60;99.90;;;;;;5072348;28;20201;-81
2022/04/18 03:42:13;;;;;;;3.17;2.30;;;8.40;99.90;;;;;;5072958;28;20400;-81
2022/04/18 03:44:43;;;;;;;3.60;2.30;;;8.40;99.90;;;;;;5071910;28;20468;-82
2022/04/18 03:47:12;;;;;;;4.10;2.20;;;8.40;99.90;;;;;;5053777;28;20194;-83
2022/04/18 03:49:39;;;;;;;3.33;2.10;;;8.30;99.90;;;;;;5054433;28;20931;-82
2022/04/18 03:52:06;;;;;;;3.30;2.00;;;8.20;99.90;;;;;;5072734;28;20770;-82
2022/04/18 03:54:31;;;;;;;3.33;2.13;;;8.20;99.90;;;;;;5055122;28;20426;-83
2022/04/18 03:56:57;;;;;;;3.57;2.03;;;8.20;99.90;;;;;;5071359;28;20437;-82
2022/04/18 03:59:22;;;;;;;5.03;2.57;;;8.10;99.90;;;;;;5072289;28;20209;-83
2022/04/18 04:01:48;;;;;;;3.77;2.33;;;8.00;99.90;;;;;;5054200;28;20181;-82
2022/04/18 04:04:14;;;;;;;4.17;2.37;;;8.00;99.90;;;;;;5072151;28;20692;-83
2022/04/18 04:06:39;;;;;;;3.50;2.20;;;8.00;99.90;;;;;;5036658;28;20241;-83
2022/04/18 04:09:05;;;;;;;4.40;2.10;;;7.90;99.90;;;;;;5054307;28;20320;-82
2022/04/18 04:11:31;;;;;;;3.30;2.23;;;7.90;99.90;;;;;;5054218;28;20267;-82
2022/04/18 04:13:57;;;;;;;4.33;2.20;;;7.80;99.90;;;;;;5054147;28;20183;-82
2022/04/18 04:16:22;;;;;;;3.47;2.00;;;7.60;99.90;;;;;;5053211;28;20201;-81
2022/04/18 04:18:49;;;;;;;2.97;1.63;;;7.60;99.90;;;;;;5071494;28;20277;-82
2022/04/18 04:21:15;;;;;;;3.50;2.53;;;7.60;99.90;;;;;;5054060;28;20599;-82
2022/04/18 04:23:41;;;;;;;3.70;2.30;;;7.60;99.90;;;;;;5071671;28;20579;-81
2022/04/18 04:26:07;;;;;;;4.00;2.63;;;7.50;99.90;;;;;;5053603;28;20217;-82
2022/04/18 04:28:33;;;;;;;5.23;2.40;;;7.50;99.90;;;;;;5071155;28;20231;-82
2022/04/18 04:30:59;;;;;;;3.30;2.10;;;7.40;99.90;;;;;;5053993;28;20420;-82
2022/04/18 04:33:24;;;;;;;4.60;2.20;;;7.40;99.90;;;;;;5053802;28;20429;-82
2022/04/18 04:35:50;;;;;;;4.07;2.47;;;7.40;99.90;;;;;;5071587;28;20213;-82
2022/04/18 04:38:16;;;;;;;3.83;2.30;;;7.40;99.90;;;;;;5053148;28;20664;-82
2022/04/18 04:40:41;;;;;;;4.03;2.07;;;7.40;99.90;;;;;;5053383;28;20186;-82
2022/04/18 04:43:07;;;;;;;3.73;2.50;;;7.40;99.90;;;;;;5071615;28;20213;-82
2022/04/18 04:45:32;;;;;;;4.47;2.80;;;7.40;99.90;;;;;;5053501;28;20185;-83
2022/04/18 04:47:58;;;;;;;2.80;1.90;;;7.30;99.90;;;;;;5053356;28;20269;-82
2022/04/18 04:50:24;;;;;;;7.00;2.77;;;7.30;99.90;;;;;;5053092;28;20271;-83
2022/04/18 04:52:50;;;;;;;5.80;2.20;;;7.30;99.90;;;;;;5071512;28;20179;-80
2022/04/18 04:55:15;;;;;;;5.00;2.60;;;7.30;99.90;;;;;;5053391;28;20587;-80
2022/04/18 04:57:41;;;;;;;3.40;2.17;;;7.30;99.90;;;;;;5074082;28;20520;-82
2022/04/18 05:00:07;;;;;;;4.33;2.40;;;7.20;99.90;;;;;;5057386;28;20645;-82
2022/04/18 05:02:32;;;;;;;3.17;2.27;;;7.20;99.90;;;;;;5057402;28;20688;-82
2022/04/18 05:04:58;;;;;;;3.77;3.33;;;7.20;99.90;;;;;;5075377;28;20649;-82
2022/04/18 05:07:24;;;;;;;4.00;2.60;;;7.20;99.90;;;;;;5106583;22;20233;-82
2022/04/18 05:09:49;;;;;;;3.53;2.03;;;7.20;99.90;;;;;;5094154;28;20461;-81
2022/04/18 05:12:17;;;;;;;3.60;2.43;;;7.20;99.90;;;;;;5076847;28;20645;-81
2022/04/18 05:14:42;;;;;;;4.27;2.40;;;7.20;99.90;;;;;;5074072;28;20185;-81
2022/04/18 05:17:08;;;;;;;4.50;2.90;;;7.20;99.90;;;;;;5074325;28;20824;-82
2022/04/18 05:19:33;;;;;;;5.20;2.47;;;7.30;99.90;;;;;;5090839;28;20236;-81
2022/04/18 05:21:59;;;;;;;4.67;2.07;;;7.20;99.90;;;;;;5090752;28;20277;-81
2022/04/18 05:24:25;;;;;;;3.40;2.60;;;7.30;99.90;;;;;;5074953;28;20566;-81
2022/04/18 05:26:50;;;;;;;4.37;2.50;;;7.30;99.90;;;;;;5089809;28;20202;-80
2022/04/18 05:29:16;;;;;;;3.90;2.40;;;7.40;99.90;;;;;;5090610;28;20218;-82
2022/04/18 05:31:41;;;;;;;4.00;2.70;;;7.50;99.90;;;;;;5090881;28;20178;-82
2022/04/18 05:34:07;;;;;;;5.80;2.87;;;7.70;99.90;;;;;;5073591;28;20190;-81
2022/04/18 05:36:32;;;;;;;4.70;3.10;;;7.60;99.90;;;;;;5089812;28;20696;-82
2022/04/18 05:38:58;;;;;;;5.27;2.50;;;7.70;99.90;;;;;;5073438;28;20218;-82
2022/04/18 05:41:23;;;;;;;3.80;2.50;;;7.80;99.90;;;;;;5089867;28;20189;-82
2022/04/18 05:43:51;;;;;;;3.50;2.30;;;7.80;99.90;;;;;;5074514;28;20205;-82
2022/04/18 05:46:17;;;;;;;5.27;2.60;;;7.90;99.90;;;;;;5074067;28;20174;-82
2022/04/18 05:48:42;;;;;;;4.03;2.63;;;7.90;99.90;;;;;;5073893;28;20414;-81
2022/04/18 05:51:08;;;;;;;5.20;2.70;;;8.00;99.90;;;;;;5076440;28;20248;-82
2022/04/18 05:53:34;;;;;;;4.07;2.27;;;8.10;99.90;;;;;;5075292;28;20186;-81
2022/04/18 05:56:00;;;;;;;4.63;2.43;;;8.20;99.90;;;;;;5074638;28;20228;-81
2022/04/18 05:58:26;;;;;;;4.43;2.80;;;8.30;99.90;;;;;;5074112;28;20847;-81
2022/04/18 06:00:52;;;;;;;5.23;3.07;;;8.40;99.90;;;;;;5075030;28;20444;-82
2022/04/18 06:03:18;;;;;;;4.17;2.40;;;8.50;99.90;;;;;;5073447;28;20987;-82
2022/04/18 06:05:43;;;;;;;4.07;2.57;;;8.60;99.90;;;;;;5073701;28;20534;-81
2022/04/18 06:08:09;;;;;;;3.53;2.43;;;8.70;99.90;;;;;;5073545;28;20298;-81
2022/04/18 06:10:40;;;;;;;4.17;2.80;;;8.80;99.90;;;;;;5073542;28;20179;-82
2022/04/18 06:13:08;;;;;;;4.60;2.80;;;9.00;99.90;;;;;;5074740;28;20266;-81
2022/04/18 06:15:34;;;;;;;4.73;2.27;;;9.10;99.90;;;;;;5074410;28;20488;-82
2022/04/18 06:18:00;;;;;;;4.40;2.43;;;9.30;99.90;;;;;;5089671;28;20468;-81
2022/04/18 06:20:26;;;;;;;3.83;2.10;;;9.40;99.90;;;;;;5096560;28;20198;-81
2022/04/18 06:22:51;;;;;;;4.60;2.30;;;9.60;99.90;;;;;;5087000;28;20248;-83
2022/04/18 06:25:17;;;;;;;4.53;2.37;;;9.70;99.90;;;;;;5086897;28;20195;-83
2022/04/18 06:27:42;;;;;;;2.77;1.93;;;9.80;99.90;;;;;;5086867;28;20198;-83
2022/04/18 06:30:08;;;;;;;4.03;2.47;;;9.90;99.90;;;;;;5086163;28;20258;-82
2022/04/18 06:32:37;;;;;;;4.10;2.47;;;10.00;99.90;;;;;;5083622;28;20186;-82
2022/04/18 06:35:04;;;;;;;4.20;2.20;;;10.20;99.90;;;;;;5085429;28;20418;-82
2022/04/18 06:37:31;;;;;;;3.10;2.37;;;10.30;99.90;;;;;;5084337;28;20485;-82
2022/04/18 06:39:57;;;;;;;3.00;2.20;;;10.40;99.90;;;;;;5083234;28;20421;-83
2022/04/18 06:42:23;;;;;;;3.90;2.30;;;10.50;99.90;;;;;;5083232;28;20790;-82
2022/04/18 06:44:48;;;;;;;4.73;2.30;;;10.60;99.90;;;;;;5084789;28;20467;-82
2022/04/18 06:47:14;;;;;;;5.57;2.33;;;10.70;99.90;;;;;;5078998;28;20689;-83
2022/04/18 06:49:40;;;;;;;3.17;1.77;;;10.80;99.90;;;;;;5082731;28;20182;-83
2022/04/18 06:52:06;;;;;;;3.37;1.70;;;10.90;99.90;;;;;;5077524;28;20423;-82
2022/04/18 06:54:32;;;;;;;3.73;1.90;;;11.00;99.90;;;;;;5075700;28;20185;-81
2022/04/18 06:57:00;;;;;;;3.40;2.30;;;11.10;99.90;;;;;;5076584;28;20641;-83
2022/04/18 06:59:30;;;;;;;2.97;2.23;;;11.20;99.90;;;;;;5081265;28;20649;-82
2022/04/18 07:01:58;;;;;;;3.40;2.17;;;11.30;99.90;;;;;;5081204;28;20491;-83
2022/04/18 07:04:24;;;;;;;3.40;1.83;;;11.40;99.90;;;;;;5079786;28;20491;-83
2022/04/18 07:06:50;;;;;;;3.03;1.93;;;11.50;99.00;;;;;;5079235;28;20477;-83
2022/04/18 07:09:16;;;;;;;3.00;2.03;;;11.60;99.60;;;;;;5076616;28;20425;-82
2022/04/18 07:11:44;;;;;;;3.00;2.00;;;11.70;99.40;;;;;;5073849;28;20424;-81
2022/04/18 07:14:11;;;;;;;3.70;2.30;;;11.70;99.90;;;;;;5074980;28;20430;-81
2022/04/18 07:16:36;;;;;;;3.20;1.77;;;11.80;99.90;;;;;;5074387;28;20449;-80
2022/04/18 07:19:02;;;;;;;3.53;2.13;;;11.90;99.90;;;;;;5072796;28;20428;-80
2022/04/18 07:21:27;;;;;;;3.47;1.90;;;12.00;99.90;;;;;;5073907;28;20179;-82
2022/04/18 07:23:53;;;;;;;6.10;2.50;;;12.10;98.70;;;;;;5074304;28;20213;-81
2022/04/18 07:26:20;;;;;;;2.70;1.60;;;12.20;99.30;;;;;;5074789;28;20205;-81
2022/04/18 07:28:48;;;;;;;3.83;2.40;;;12.30;99.20;;;;;;5073118;28;20179;-81
2022/04/18 07:31:14;;;;;;;3.43;1.80;;;12.30;99.60;;;;;;5074420;28;20421;-81
2022/04/18 07:33:40;;;;;;;3.00;1.97;;;12.40;94.90;;;;;;5073200;28;20515;-81
2022/04/18 07:36:07;;;;;;;3.57;1.93;;;12.50;98.20;;;;;;5072921;28;20480;-82
2022/04/18 07:38:51;;;;;;;2.73;1.63;;;12.60;95.00;;;;;;5072223;28;20499;-81
2022/04/18 07:41:18;;;;;;;3.47;2.00;;;12.70;96.90;;;;;;5076383;28;20441;-83
2022/04/18 07:43:44;;;;;;;2.83;1.70;;;12.80;98.20;;;;;;5073853;28;20505;-84
2022/04/18 07:46:10;;;;;;;4.20;1.83;;;12.90;98.30;;;;;;5075169;28;20425;-82
2022/04/18 07:48:36;;;;;;;2.50;1.60;;;12.90;94.90;;;;;;5077191;28;20406;-81
2022/04/18 07:53:46;;;;;;;3.70;2.40;;;13.10;93.90;;;;;;5078479;28;20197;-83
2022/04/18 07:56:12;;;;;;;3.77;2.20;;;13.20;94.30;;;;;;5077439;28;20425;-83
2022/04/18 07:58:37;;;;;;;3.50;2.43;;;13.30;91.80;;;;;;5075780;28;20660;-84
2022/04/18 08:01:03;;;;;;;3.60;2.20;;;13.40;91.40;;;;;;5075976;28;20183;-84
2022/04/18 08:03:29;;;;;;;3.40;1.93;;;13.50;90.70;;;;;;5076371;28;20211;-84
2022/04/18 08:05:56;;;;;;;3.80;2.00;;;13.60;92.10;;;;;;5071760;28;20550;-83
2022/04/18 08:08:22;;;;;;;3.23;2.13;;;13.70;90.70;;;;;;5070481;28;20206;-84
2022/04/18 08:10:48;;;;;;;4.07;2.23;;;13.80;87.10;;;;;;5070622;28;20464;-84
2022/04/18 08:13:14;;;;;;;3.70;2.10;;;13.90;88.30;;;;;;5069617;28;20433;-84
2022/04/18 08:15:39;;;;;;;2.97;2.10;;;14.00;84.20;;;;;;5079070;28;20798;-83
2022/04/18 08:18:05;;;;;;;3.17;1.80;;;14.10;88.10;;;;;;5071319;28;20210;-83
2022/04/18 08:20:31;;;;;;;4.40;2.07;;;14.20;85.30;;;;;;5071758;28;20183;-82
2022/04/18 08:22:56;;;;;;;3.03;1.90;;;14.20;81.70;;;;;;5072398;28;20313;-83
2022/04/18 08:25:22;;;;;;;3.97;2.13;;;14.30;81.60;;;;;;5068341;28;20183;-84
2022/04/18 08:27:48;;;;;;;3.57;2.23;;;14.30;90.80;;;;;;5074049;28;20206;-82
2022/04/18 08:30:13;;;;;;;2.90;2.10;;;14.50;87.30;;;;;;5072499;28;20179;-83
2022/04/18 08:32:40;;;;;;;4.03;2.00;;;14.60;78.60;;;;;;5074637;28;20253;-83
2022/04/18 08:35:06;;;;;;;4.07;2.10;;;14.90;79.00;;;;;;5074380;28;20571;-83
2022/04/18 08:37:34;;;;;;;2.70;1.80;;;15.90;84.10;;;;;;5075172;28;20484;-83
2022/04/18 08:40:00;;;;;;;3.33;1.93;;;17.50;72.80;;;;;;5076544;28;20424;-84
2022/04/18 08:42:30;;;;;;;3.50;2.00;;;19.30;65.40;;;;;;5076047;28;20503;-84
2022/04/18 08:44:55;;;;;;;3.20;1.90;;;20.70;55.10;;;;;;5076372;28;20457;-85
2022/04/18 08:52:50;;;;;;;4.33;2.37;;;24.30;44.70;;;;;;5076511;28;20420;-83
2022/04/18 08:55:17;;;;;;;4.73;2.80;;;26.10;40.00;;;;;;5074744;28;20425;-86
2022/04/18 08:57:42;;;;;;;3.03;1.97;;;26.90;40.50;;;;;;5075527;28;20199;-86
2022/04/18 09:00:09;;;;;;;2.97;1.77;;;28.00;36.50;;;;;;5076213;28;20428;-84
2022/04/18 09:02:35;;;;;;;4.83;2.50;;;28.90;33.90;;;;;;5075794;28;20236;-83
2022/04/18 09:05:02;;;;;;;3.70;2.40;;;29.70;32.10;;;;;;5074820;28;20469;-81
2022/04/18 09:07:27;;;;;;;3.20;2.00;;;30.30;30.40;;;;;;5073756;28;20955;-82
2022/04/18 09:09:55;;;;;;;3.50;2.27;;;31.10;29.90;;;;;;5074436;28;20429;-83
2022/04/18 09:12:23;;;;;;;4.40;2.60;;;31.50;28.70;;;;;;5074930;28;20188;-81
2022/04/18 09:14:48;;;;;;;4.23;2.33;;;32.50;28.80;;;;;;5075119;28;20457;-81
2022/04/18 09:17:34;;;;;;;3.07;2.20;;;33.00;27.40;;;;;;5086517;22;21109;-82
2022/04/18 09:20:08;;;;;;;4.10;2.37;;;33.20;26.10;;;;;;5081068;28;20178;-80
2022/04/18 09:22:42;;;;;;;3.00;2.23;;;33.70;26.20;;;;;;5080621;28;20852;-82
2022/04/18 09:25:20;;;;;;;3.40;2.10;;;34.50;26.10;;;;;;5078564;28;20521;-82
2022/04/18 09:27:54;;;;;;;3.63;2.50;;;34.60;24.80;;;;;;5077422;28;21020;-77
2022/04/18 09:30:21;;;;;;;3.37;2.20;;;35.30;24.90;;;;;;5076520;28;20416;-77
2022/04/18 09:33:01;;;;;;;3.50;2.10;;;35.60;24.30;;;;;;5076662;28;20416;-77
2022/04/18 09:35:30;;;;;;;3.23;1.90;;;36.00;23.30;;;;;;5077353;28;20494;-77
2022/04/18 09:38:01;;;;;;;3.70;2.30;;;36.80;23.70;;;;;;5076103;28;20408;-76
2022/04/18 09:40:30;;;;;;;3.53;2.30;;;36.90;23.00;;;;;;5076797;28;20416;-77
2022/04/18 09:42:57;;;;;;;3.20;2.20;;;37.30;23.40;;;;;;5075212;28;20431;-77
2022/04/18 09:45:23;;;;;;;3.17;2.20;;;37.60;22.70;;;;;;5077920;28;20956;-79
2022/04/18 09:48:02;;;;;;;2.97;2.10;;;37.50;22.70;;;;;;5079078;28;20446;-77
2022/04/18 09:53:21;;;;;;;4.67;1.93;;;38.70;22.10;;;;;;5102864;28;20467;-78
2022/04/18 09:55:49;;;;;;;3.07;1.90;;;39.40;21.40;;;;;;5080659;28;20440;-78
2022/04/18 09:58:15;;;;;;;3.70;1.93;;;39.60;20.70;;;;;;5079495;28;20431;-78
2022/04/18 10:00:41;;;;;;;3.40;2.40;;;39.80;20.60;;;;;;5081396;28;20429;-79
2022/04/18 10:03:08;;;;;;;3.27;2.40;;;40.40;20.70;;;;;;5079090;28;20174;-78
2022/04/18 10:05:34;;;;;;;3.57;2.47;;;40.20;20.40;;;;;;5078658;28;20448;-78
2022/04/18 10:08:03;;;;;;;3.83;3.30;;;39.60;19.60;;;;;;5081750;28;20427;-77
2022/04/18 10:10:32;;;;;;;3.50;2.40;;;39.80;19.70;;;;;;5082041;28;20959;-78
2022/04/18 10:12:58;;;;;;;2.97;2.17;;;40.30;19.10;;;;;;5078557;28;20501;-78
2022/04/18 10:15:26;;;;;;;3.60;2.20;;;40.00;19.80;;;;;;5073863;28;20511;-78
2022/04/18 10:17:52;;;;;;;3.63;2.40;;;40.60;19.20;;;;;;5078996;28;20193;-78
2022/04/18 10:20:37;;;;;;;2.47;1.80;;;40.10;19.80;;;;;;5072598;28;20507;-78
2022/04/18 10:23:22;;;;;;;2.90;1.90;;;39.90;19.40;;;;;;5077005;28;20418;-75
2022/04/18 10:26:12;;;;;;;3.00;2.20;;;39.90;19.60;;;;;;5058674;28;20481;-78
2022/04/18 10:28:41;;;;;;;3.30;2.40;;;40.20;18.90;;;;;;5057683;28;20428;-77
2022/04/18 10:31:15;;;;;;;3.60;1.97;;;40.70;19.40;;;;;;5057614;28;20836;-76
2022/04/18 10:33:43;;;;;;;3.27;2.00;;;41.00;17.60;;;;;;5078449;28;20463;-77
2022/04/18 10:36:09;;;;;;;2.80;1.93;;;41.00;18.40;;;;;;5080890;28;20455;-78
2022/04/18 10:38:37;;;;;;;2.80;2.30;;;41.50;18.70;;;;;;5081594;28;20929;-79
2022/04/18 10:41:15;;;;;;;3.37;1.90;;;42.20;17.50;;;;;;5078848;28;20994;-78
2022/04/18 10:43:58;;;;;;;2.97;2.17;;;41.80;17.40;;;;;;5078899;28;20518;-81
2022/04/18 10:46:24;;;;;;;3.73;2.53;;;42.10;18.30;;;;;;5081863;28;20447;-83
2022/04/18 10:48:58;;;;;;;3.30;2.07;;;42.00;17.20;;;;;;5082961;28;20534;-81
2022/04/18 10:51:35;;;;;;;3.70;1.90;;;42.50;18.40;;;;;;5081177;28;20241;-81
2022/04/18 10:54:18;;;;;;;3.70;1.97;;;41.90;16.30;;;;;;5080396;28;20920;-81
2022/04/18 10:56:51;;;;;;;2.97;2.23;;;40.70;17.90;;;;;;5086895;28;20451;-81
2022/04/18 10:59:27;;;;;;;3.20;2.27;;;40.10;18.10;;;;;;5062194;28;20413;-80
2022/04/18 11:01:57;;;;;;;3.30;2.20;;;39.70;17.50;;;;;;5062827;28;20419;-81
2022/04/18 11:04:26;;;;;;;2.80;1.87;;;39.10;17.70;;;;;;5063249;28;20791;-80
2022/04/18 11:09:21;;;;;;;3.03;2.07;;;37.40;17.30;;;;;;5067469;28;20484;-84
2022/04/18 11:11:53;;;;;;;3.90;2.30;;;36.80;18.50;;;;;;5072928;28;20411;-85
2022/04/18 11:14:26;;;;;;;3.00;2.30;;;36.50;19.50;;;;;;5054878;28;20515;-85
2022/04/18 11:16:57;;;;;;;2.67;2.13;;;36.80;19.60;;;;;;5071950;28;20400;-84
2022/04/18 11:19:28;;;;;;;3.90;2.00;;;36.50;19.20;;;;;;5072917;28;20759;-84
2022/04/18 11:22:00;;;;;;;3.13;2.07;;;35.60;19.60;;;;;;5072792;28;20884;-85
2022/04/18 11:24:48;;;;;;;2.80;1.87;;;35.60;20.20;;;;;;5071307;28;20432;-88
2022/04/18 11:27:18;;;;;;;2.80;1.80;;;36.70;19.10;;;;;;5053747;28;20520;-89
2022/04/18 11:29:50;;;;;;;2.97;2.00;;;37.50;19.00;;;;;;5054581;28;20421;-88
2022/04/18 11:32:17;;;;;;;2.63;2.00;;;38.20;18.90;;;;;;5054636;28;20429;-88
2022/04/18 11:34:46;;;;;;;3.70;2.40;;;37.50;19.40;;;;;;5072582;28;20452;-89
2022/04/18 11:37:13;;;;;;;3.20;2.27;;;37.10;19.40;;;;;;5072022;28;20433;-88
2022/04/18 11:39:46;;;;;;;2.90;1.90;;;36.10;18.60;;;;;;5035330;28;20834;-84
2022/04/18 11:42:31;;;;;;;2.77;1.80;;;36.10;19.20;;;;;;5031451;28;20403;-84
2022/04/18 11:45:00;;;;;;;2.97;1.80;;;35.90;20.20;;;;;;5032409;28;20407;-84
2022/04/18 11:47:33;;;;;;;2.77;2.00;;;35.70;18.50;;;;;;5030410;28;20472;-84
2022/04/18 11:50:04;;;;;;;3.23;2.33;;;36.20;20.40;;;;;;5031232;28;20434;-84
2022/04/18 11:52:32;;;;;;;3.03;2.37;;;35.70;18.40;;;;;;5032377;28;20765;-84
2022/04/18 11:55:19;;;;;;;2.73;1.93;;;36.50;21.40;;;;;;5032134;28;20454;-83
2022/04/18 11:57:48;;;;;;;2.83;2.07;;;37.00;18.80;;;;;;5030353;28;20526;-91
2022/04/18 12:06:44;;;;;;;3.00;2.00;;;35.90;19.90;;;;;;5031801;28;20415;-86
2022/04/18 12:08:35;;;;;;;3.47;2.10;;;32.30;20.50;;;;;;5031513;28;20823;-86
2022/04/18 12:11:00;;;;;;;3.17;2.30;;;33.40;22.50;;;;;;5030708;28;20419;-87
2022/04/18 12:13:26;;;;;;;2.90;1.73;;;35.10;21.80;;;;;;5031997;28;20207;-86
2022/04/18 12:15:52;;;;;;;2.70;1.93;;;35.80;20.60;;;;;;5030490;28;20600;-87
2022/04/18 12:18:19;;;;;;;3.40;2.10;;;37.00;21.40;;;;;;5029995;28;20204;-86
2022/04/18 12:20:50;;;;;;;2.80;1.70;;;37.70;19.90;;;;;;5030555;28;20227;-87
2022/04/18 12:23:17;;;;;;;3.20;2.00;;;38.30;18.60;;;;;;5030909;28;20426;-87
2022/04/18 12:25:49;;;;;;;3.13;1.80;;;39.00;18.30;;;;;;5013952;28;20419;-88
2022/04/18 12:28:18;;;;;;;2.90;1.97;;;40.60;19.60;;;;;;5029934;28;21012;-87
2022/04/18 12:30:44;;;;;;;3.50;2.17;;;41.00;17.70;;;;;;5030499;28;20427;-87
2022/04/18 12:33:20;;;;;;;3.10;1.87;;;39.50;18.20;;;;;;5030566;28;20480;-88
2022/04/18 12:35:48;;;;;;;3.13;1.53;;;38.70;19.40;;;;;;5014051;28;20627;-87
2022/04/18 12:38:15;;;;;;;4.00;1.90;;;38.70;19.10;;;;;;5047941;28;20461;-87
2022/04/18 12:40:43;;;;;;;3.40;1.93;;;38.90;18.20;;;;;;5051684;28;20468;-87
2022/04/18 12:43:11;;;;;;;3.03;1.70;;;40.00;18.90;;;;;;5051569;28;20478;-87
2022/04/18 12:45:47;;;;;;;4.10;1.93;;;39.40;17.60;;;;;;5050108;28;20433;-88
2022/04/18 12:48:13;;;;;;;2.50;1.30;;;39.00;18.50;;;;;;5049613;28;20445;-87
2022/04/18 12:50:40;;;;;;;3.00;1.90;;;39.50;18.80;;;;;;5051534;28;20410;-87
2022/04/18 12:53:05;;;;;;;2.30;1.40;;;38.70;18.80;;;;;;5051478;28;20414;-87
2022/04/18 12:55:31;;;;;;;2.83;1.87;;;38.00;19.00;;;;;;5051663;28;20776;-87
2022/04/18 12:57:58;;;;;;;2.60;1.80;;;37.90;19.60;;;;;;5049455;28;20227;-87
2022/04/18 13:00:28;;;;;;;2.60;1.83;;;37.00;19.10;;;;;;5051575;28;20428;-87
2022/04/18 13:02:57;;;;;;;2.53;1.70;;;36.70;19.80;;;;;;5050153;28;20418;-87
2022/04/18 13:05:28;;;;;;;2.37;1.43;;;37.70;18.60;;;;;;5050043;28;20418;-86
2022/04/18 13:08:05;;;;;;;2.60;1.70;;;37.90;18.90;;;;;;5051571;28;20457;-86
2022/04/18 13:10:37;;;;;;;3.07;2.03;;;37.10;18.70;;;;;;5055399;28;20468;-87
2022/04/18 13:13:07;;;;;;;2.53;1.47;;;37.40;19.10;;;;;;5051396;28;20402;-87
2022/04/18 13:15:34;;;;;;;2.90;2.10;;;37.70;19.10;;;;;;5042225;28;20550;-87
2022/04/18 13:18:11;;;;;;;2.30;1.60;;;37.50;18.50;;;;;;5051258;28;20460;-87
2022/04/18 13:20:38;;;;;;;2.87;1.70;;;37.50;20.50;;;;;;5067400;28;20436;-87
2022/04/18 13:23:05;;;;;;;3.60;1.67;;;38.30;19.80;;;;;;5061008;28;20426;-87